Time;durP1;ratioP1;P1;durP2;ratioP2;P2;SDS_P1;SDS_P2;PMS_P1;PMS_P2;Temp;Humidity;BMP_temperature;BMP_pressure;BME280_temperature;BME280_humidity;BME280_pressure;Samples;Min_cycle;Max_cycle;Signal;HPM_P1;HPM_P2
2022/07/17 00:18:13;;;;;;;4.20;2.73;;;;;;;;;;5676995;22;15071068;-94
2022/07/17 00:58:32;;;;;;;;;;;;;;;;;;;;;
2022/07/17 01:07:23;;;;;;;10.35;2.83;;;;;;;;;;5950709;24;20385;-92
2022/07/17 01:16:22;;;;;;;;;;;;;;;;;;;;;
2022/07/17 01:37:24;;;;;;;;;;;;;;;;;;;;;
2022/07/17 01:43:39;;;;;;;;;;;;;;;;;;;;;
2022/07/17 02:02:05;;;;;;;;;;;;;;;;;;;;;
2022/07/17 02:33:29;;;;;;;;;;;;;;;;;;;;;
2022/07/17 02:39:41;;;;;;;;;;;;;;;;;;;;;
2022/07/17 02:46:42;;;;;;;;;;;;;;;;;;;;;
2022/07/17 02:50:02;;;;;;;;;;;;;;;;;;;;;
2022/07/17 02:53:01;;;;;;;;;;;;;;;;;;;;;
2022/07/17 02:56:08;;;;;;;;;;;;;;;;;;;;;
2022/07/17 03:01:49;;;;;;;5.13;2.60;;;20.80;70.90;;;;;;5954300;23;19996;-93
2022/07/17 03:08:19;;;;;;;;;;;;;;;;;;;;;
2022/07/17 03:11:15;;;;;;;;;;;;;;;;;;;;;
2022/07/17 03:17:20;;;;;;;;;;;;;;;;;;;;;
2022/07/17 03:29:43;;;;;;;;;;;;;;;;;;;;;
2022/07/17 03:35:28;;;;;;;;;;;;;;;;;;;;;
2022/07/17 03:38:40;;;;;;;;;;;;;;;;;;;;;
2022/07/17 03:42:00;;;;;;;;;;;;;;;;;;;;;
2022/07/17 03:45:07;;;;;;;;;;;;;;;;;;;;;
2022/07/17 03:48:00;;;;;;;5.47;2.92;;;20.40;69.10;;;;;;6172336;23;20088;-94
2022/07/17 03:50:35;;;;;;;6.47;3.15;;;20.40;70.50;;;;;;6156563;23;20007;-94
2022/07/17 03:53:30;;;;;;;3.22;2.65;;;20.40;70.00;;;;;;6154616;23;20009;-90
2022/07/17 03:55:58;;;;;;;9.48;2.80;;;20.40;70.10;;;;;;6157304;23;20397;-91
2022/07/17 03:59:02;;;;;;;;;;;;;;;;;;;;;
2022/07/17 04:02:07;;;;;;;;;;;;;;;;;;;;;
2022/07/17 04:05:12;;;;;;;;;;;;;;;;;;;;;
2022/07/17 04:08:23;;;;;;;6.13;2.60;;;20.30;70.10;;;;;;6305496;22;20082;-93
2022/07/17 04:13:58;;;;;;;;;;;;;;;;;;;;;
2022/07/17 04:16:37;;;;;;;6.32;2.83;;;20.00;70.40;;;;;;6300834;22;20102;-90
2022/07/17 04:19:16;;;;;;;;;;;;;;;;;;;;;
2022/07/17 04:22:04;;;;;;;5.82;2.80;;;20.00;70.10;;;;;;6306460;22;20330;-91
2022/07/17 04:24:52;;;;;;;;;;;20.30;69.50;;;;;;6282044;22;20121;-95
2022/07/17 04:27:38;;;;;;;8.30;2.78;;;20.30;69.70;;;;;;6281601;22;19906;-91
2022/07/17 04:30:26;;;;;;;7.43;2.70;;;20.30;71.30;;;;;;6305413;22;20013;-91
2022/07/17 04:32:58;;;;;;;9.70;2.90;;;20.10;69.50;;;;;;6238260;23;19989;-91
2022/07/17 04:35:23;;;;;;;5.13;2.58;;;20.20;70.30;;;;;;6229900;23;20024;-87
2022/07/17 04:37:49;;;;;;;7.72;2.50;;;20.20;70.20;;;;;;6215433;23;20400;-90
2022/07/17 04:40:15;;;;;;;6.13;2.63;;;20.20;69.60;;;;;;6211953;23;20043;-92
2022/07/17 04:42:41;;;;;;;4.90;2.40;;;20.20;70.00;;;;;;6184862;23;20415;-90
2022/07/17 04:45:07;;;;;;;7.55;2.40;;;20.20;69.90;;;;;;6210275;23;20005;-91
2022/07/17 04:47:34;;;;;;;3.53;2.40;;;20.20;69.90;;;;;;6209500;23;20000;-92
2022/07/17 04:50:00;;;;;;;5.93;2.30;;;20.20;69.80;;;;;;6183947;23;20341;-88
2022/07/17 04:52:25;;;;;;;11.68;2.40;;;20.20;70.30;;;;;;6183264;23;20007;-88
2022/07/17 04:54:52;;;;;;;5.60;2.78;;;20.20;70.20;;;;;;6184732;23;20012;-87
2022/07/17 04:57:19;;;;;;;6.10;2.13;;;20.20;69.90;;;;;;6185152;23;20009;-92
2022/07/17 04:59:44;;;;;;;5.97;2.40;;;20.20;70.20;;;;;;6209198;23;20021;-92
2022/07/17 05:02:10;;;;;;;3.95;2.20;;;20.20;70.20;;;;;;6184909;23;20007;-92
2022/07/17 05:04:36;;;;;;;6.50;2.50;;;20.20;70.70;;;;;;6184567;23;20469;-90
2022/07/17 05:07:01;;;;;;;4.78;2.40;;;20.20;70.80;;;;;;6184492;23;20000;-88
2022/07/17 05:09:27;;;;;;;6.32;2.45;;;20.30;70.50;;;;;;6220549;22;20424;-90
2022/07/17 05:11:53;;;;;;;4.55;2.53;;;20.30;70.30;;;;;;6303889;22;20019;-91
2022/07/17 05:14:19;;;;;;;9.05;2.58;;;;;;;;;;6304515;22;20047;-92
2022/07/17 05:16:44;;;;;;;11.95;2.53;;;20.30;69.00;;;;;;6276433;22;20003;-90
2022/07/17 05:19:10;;;;;;;4.50;2.30;;;20.30;70.40;;;;;;6276417;22;20010;-92
2022/07/17 05:21:36;;;;;;;5.25;2.50;;;20.40;70.10;;;;;;6302893;22;20050;-93
2022/07/17 05:24:22;;;;;;;4.47;2.10;;;20.40;70.00;;;;;;6302849;22;20003;-93
2022/07/17 05:26:47;;;;;;;6.47;2.90;;;20.40;70.00;;;;;;6210278;23;20005;-89
2022/07/17 05:29:13;;;;;;;6.47;2.30;;;20.40;70.10;;;;;;6209236;23;20070;-90
2022/07/17 05:31:39;;;;;;;8.30;2.28;;;20.50;70.60;;;;;;6208751;23;20016;-89
2022/07/17 05:34:05;;;;;;;7.32;2.58;;;20.50;70.80;;;;;;6208782;23;20009;-87
2022/07/17 05:36:30;;;;;;;4.63;2.60;;;20.50;71.00;;;;;;6208908;23;20031;-89
2022/07/17 05:38:56;;;;;;;7.53;2.47;;;20.60;71.40;;;;;;6183361;23;20357;-89
2022/07/17 05:41:22;;;;;;;8.68;2.53;;;20.60;71.70;;;;;;6210650;23;20005;-88
2022/07/17 05:43:48;;;;;;;5.35;2.50;;;20.60;71.20;;;;;;6211342;23;20267;-91
2022/07/17 05:46:14;;;;;;;4.03;2.40;;;20.60;71.00;;;;;;6184283;23;20039;-91
2022/07/17 05:48:39;;;;;;;3.78;2.40;;;20.60;71.20;;;;;;6183913;23;20055;-92
2022/07/17 05:51:05;;;;;;;5.80;2.30;;;20.70;71.80;;;;;;6183732;23;20005;-90
2022/07/17 05:53:31;;;;;;;6.78;2.28;;;20.70;71.80;;;;;;6183458;23;20035;-91
2022/07/17 05:55:57;;;;;;;7.20;2.38;;;;;;;;;;6183530;23;20345;-90
2022/07/17 05:58:23;;;;;;;9.77;2.58;;;20.80;70.70;;;;;;6254661;22;20007;-88
2022/07/17 06:00:49;;;;;;;6.45;2.30;;;20.90;71.90;;;;;;6304573;22;20019;-89
2022/07/17 06:03:15;;;;;;;5.15;2.92;;;20.90;72.20;;;;;;6302709;22;19996;-88
2022/07/17 06:05:41;;;;;;;4.05;2.60;;;;;;;;;;6275309;22;20374;-89
2022/07/17 06:08:07;;;;;;;4.20;2.42;;;21.00;70.70;;;;;;6301925;22;20511;-87
2022/07/17 06:10:33;;;;;;;4.15;2.17;;;21.00;71.60;;;;;;6302309;22;20019;-89
2022/07/17 06:12:59;;;;;;;7.35;2.60;;;21.10;71.40;;;;;;6274832;22;20007;-88
2022/07/17 06:15:25;;;;;;;9.30;2.47;;;21.10;72.80;;;;;;6274601;22;20090;-88
2022/07/17 06:17:52;;;;;;;8.48;2.95;;;21.20;71.40;;;;;;6303497;22;20034;-87
2022/07/17 06:20:18;;;;;;;5.03;2.72;;;21.20;71.40;;;;;;6270557;22;20069;-85
2022/07/17 06:22:45;;;;;;;4.78;2.40;;;21.20;71.40;;;;;;6270804;22;20000;-86
2022/07/17 06:25:12;;;;;;;5.70;2.60;;;21.30;71.30;;;;;;6271317;22;20031;-86
2022/07/17 06:27:41;;;;;;;3.83;2.30;;;21.30;71.70;;;;;;6269263;22;20000;-88
2022/07/17 06:30:12;;;;;;;4.00;2.45;;;21.40;70.80;;;;;;6269625;22;20014;-88
2022/07/17 06:32:38;;;;;;;6.10;2.60;;;21.50;70.40;;;;;;6271301;22;20067;-88
2022/07/17 06:35:06;;;;;;;8.30;2.60;;;21.50;70.40;;;;;;6269900;22;20015;-91
2022/07/17 06:37:31;;;;;;;3.88;2.35;;;21.80;70.60;;;;;;6269605;22;20000;-89
2022/07/17 06:39:57;;;;;;;2.45;2.08;;;21.50;70.00;;;;;;6271316;22;19999;-86
2022/07/17 06:42:23;;;;;;;4.18;2.13;;;21.60;71.00;;;;;;6270858;22;20070;-88
2022/07/17 06:44:48;;;;;;;5.00;2.63;;;21.70;71.10;;;;;;6272401;22;20052;-88
2022/07/17 06:47:14;;;;;;;5.18;2.40;;;21.70;71.80;;;;;;6271052;22;20003;-89
2022/07/17 06:49:40;;;;;;;5.20;2.45;;;21.90;90.20;;;;;;6270448;22;20004;-89
2022/07/17 06:52:06;;;;;;;10.85;2.33;;;21.80;70.60;;;;;;6267886;22;20004;-91
2022/07/17 06:54:31;;;;;;;4.28;2.20;;;21.80;70.10;;;;;;6269581;22;20086;-86
2022/07/17 06:57:00;;;;;;;2.80;2.20;;;21.90;69.30;;;;;;6269290;22;19996;-90
2022/07/17 06:59:26;;;;;;;2.88;2.22;;;21.90;69.40;;;;;;6268177;22;20011;-92
2022/07/17 07:01:52;;;;;;;2.70;2.42;;;21.90;69.20;;;;;;6270703;22;20004;-86
2022/07/17 07:04:18;;;;;;;7.13;2.50;;;21.90;69.60;;;;;;6272169;22;20075;-86
2022/07/17 07:06:44;;;;;;;3.65;2.30;;;21.90;69.90;;;;;;6270351;22;20014;-87
2022/07/17 07:09:12;;;;;;;6.25;2.47;;;22.00;70.00;;;;;;6272537;22;19999;-89
2022/07/17 07:11:39;;;;;;;5.32;2.50;;;;;;;;;;6272239;22;19996;-90
2022/07/17 07:14:09;;;;;;;5.25;2.60;;;22.10;69.60;;;;;;6269566;22;20544;-91
2022/07/17 07:16:35;;;;;;;5.07;2.25;;;22.20;70.60;;;;;;6284192;22;20000;-89
2022/07/17 07:19:01;;;;;;;5.57;2.28;;;22.20;70.10;;;;;;6286003;22;20089;-90
2022/07/17 07:21:29;;;;;;;4.63;2.17;;;22.30;70.90;;;;;;6304316;22;20007;-90
2022/07/17 07:23:55;;;;;;;5.53;2.20;;;22.40;74.50;;;;;;6303831;22;20074;-89
2022/07/17 07:26:22;;;;;;;2.72;2.20;;;22.60;71.60;;;;;;6304130;22;20003;-88
2022/07/17 07:28:50;;;;;;;3.15;2.17;;;22.30;71.70;;;;;;6303710;22;20385;-93
2022/07/17 07:31:18;;;;;;;4.95;2.50;;;22.50;72.70;;;;;;6302636;22;20074;-90
2022/07/17 07:33:44;;;;;;;7.45;2.28;;;22.60;70.40;;;;;;6302713;22;20003;-88
2022/07/17 07:36:10;;;;;;;8.20;2.20;;;22.70;71.80;;;;;;6275282;22;20003;-92
2022/07/17 07:38:36;;;;;;;6.50;2.10;;;22.80;69.60;;;;;;6306654;22;20006;-88
2022/07/17 07:41:02;;;;;;;6.00;2.38;;;22.90;69.90;;;;;;6305164;22;20003;-93
2022/07/17 07:43:28;;;;;;;5.95;2.70;;;22.80;70.20;;;;;;6276145;22;19999;-90
2022/07/17 07:45:53;;;;;;;4.70;2.45;;;22.90;68.70;;;;;;6303451;22;20010;-87
2022/07/17 07:48:19;;;;;;;10.60;2.80;;;22.90;69.30;;;;;;6276246;22;20041;-86
2022/07/17 07:50:44;;;;;;;4.75;2.38;;;22.90;68.10;;;;;;6302675;22;19999;-88
2022/07/17 07:53:10;;;;;;;6.03;2.50;;;23.00;68.10;;;;;;6302941;22;20021;-94
2022/07/17 07:55:36;;;;;;;9.52;2.30;;;23.20;69.10;;;;;;6302516;22;20041;-88
2022/07/17 07:58:06;;;;;;;4.18;2.35;;;23.30;68.80;;;;;;6303198;22;20003;-92
2022/07/17 08:00:32;;;;;;;5.50;2.20;;;23.40;68.80;;;;;;6281254;22;20339;-94
2022/07/17 08:02:58;;;;;;;5.63;2.13;;;23.40;67.10;;;;;;6252532;22;20010;-89
2022/07/17 08:05:25;;;;;;;6.03;2.20;;;23.50;69.40;;;;;;6277010;22;20011;-95
2022/07/17 08:07:51;;;;;;;4.35;2.40;;;23.70;65.40;;;;;;6305973;22;19995;-94
2022/07/17 08:10:17;;;;;;;5.50;2.20;;;23.70;65.20;;;;;;6306218;22;20003;-90
2022/07/17 08:12:43;;;;;;;4.93;2.30;;;23.80;68.20;;;;;;6303924;22;20010;-92
2022/07/17 08:15:09;;;;;;;5.68;2.40;;;23.90;67.90;;;;;;6277147;22;20011;-93
2022/07/17 08:17:35;;;;;;;7.97;2.33;;;24.10;66.40;;;;;;6303034;22;20048;-88
2022/07/17 08:20:01;;;;;;;7.82;2.17;;;24.20;67.10;;;;;;6304317;22;20094;-88
2022/07/17 08:22:26;;;;;;;3.47;2.35;;;24.40;65.50;;;;;;6306930;22;20003;-92
2022/07/17 08:24:52;;;;;;;8.50;2.20;;;24.50;65.90;;;;;;6305745;22;20362;-86
2022/07/17 08:27:18;;;;;;;3.75;2.40;;;24.60;65.80;;;;;;6303620;22;20003;-86
2022/07/17 08:29:43;;;;;;;4.80;2.55;;;24.80;64.20;;;;;;6304458;22;20007;-85
2022/07/17 08:32:09;;;;;;;3.92;2.17;;;24.80;57.60;;;;;;6305107;22;20072;-93
2022/07/17 08:34:35;;;;;;;4.18;2.40;;;24.90;62.30;;;;;;6301999;22;20684;-85
2022/07/17 08:37:01;;;;;;;11.07;2.40;;;24.90;60.80;;;;;;6301513;22;20524;-85
2022/07/17 08:39:26;;;;;;;9.77;2.78;;;25.00;59.30;;;;;;6301977;22;20439;-89
2022/07/17 08:41:52;;;;;;;6.43;2.50;;;25.00;58.80;;;;;;6303451;22;19999;-89
2022/07/17 08:44:18;;;;;;;5.40;2.30;;;25.00;59.10;;;;;;6304116;22;20077;-92
2022/07/17 08:46:44;;;;;;;2.95;2.33;;;25.20;61.00;;;;;;6302509;22;20402;-89
2022/07/17 08:49:11;;;;;;;6.97;2.40;;;25.30;58.50;;;;;;6275182;22;19999;-86
2022/07/17 08:51:37;;;;;;;6.25;2.33;;;25.40;57.40;;;;;;6302769;22;20492;-93
2022/07/17 08:54:03;;;;;;;7.10;2.47;;;25.50;56.10;;;;;;6302993;22;20031;-86
2022/07/17 08:56:29;;;;;;;9.27;2.40;;;25.50;52.40;;;;;;6276533;22;20018;-92
2022/07/17 08:58:55;;;;;;;6.30;2.28;;;25.50;56.10;;;;;;6303906;22;20450;-89
2022/07/17 09:01:22;;;;;;;3.38;2.20;;;25.60;56.50;;;;;;6303234;22;20042;-90
2022/07/17 09:03:57;;;;;;;7.05;2.50;;;25.80;57.70;;;;;;6304501;22;20312;-87
2022/07/17 09:06:23;;;;;;;18.40;2.58;;;25.90;56.90;;;;;;6304246;22;19999;-84
2022/07/17 09:09:09;;;;;;;8.43;2.42;;;26.10;55.60;;;;;;6276879;22;20023;-89
2022/07/17 09:11:50;;;;;;;7.32;2.30;;;26.10;51.10;;;;;;6303210;22;20033;-84
2022/07/17 09:14:17;;;;;;;6.43;2.20;;;26.10;50.00;;;;;;6303424;22;20007;-84
2022/07/17 09:16:54;;;;;;;8.13;2.70;;;26.10;52.50;;;;;;6302971;22;20347;-84
2022/07/17 09:19:28;;;;;;;7.47;2.33;;;26.10;52.60;;;;;;6304236;22;20003;-84
2022/07/17 09:22:13;;;;;;;8.25;2.38;;;;;;;;;;6304019;22;20003;-89
2022/07/17 09:25:02;;;;;;;5.53;2.20;;;26.50;51.10;;;;;;6303231;22;20526;-90
2022/07/17 09:27:29;;;;;;;5.82;2.22;;;26.50;52.40;;;;;;6274869;22;20049;-85
2022/07/17 09:30:02;;;;;;;7.32;2.47;;;26.50;47.60;;;;;;6303577;22;20030;-85
2022/07/17 09:32:32;;;;;;;5.13;2.10;;;26.50;47.80;;;;;;6275987;22;20459;-85
2022/07/17 09:35:00;;;;;;;10.23;2.38;;;26.60;51.70;;;;;;6303197;22;20436;-85
2022/07/17 09:37:28;;;;;;;6.45;2.40;;;26.80;50.60;;;;;;6303354;22;19999;-84
2022/07/17 09:39:55;;;;;;;4.35;2.17;;;26.90;50.80;;;;;;6304085;22;19999;-84
2022/07/17 09:42:31;;;;;;;5.30;2.28;;;27.00;48.10;;;;;;6303992;22;20459;-89
2022/07/17 09:45:05;;;;;;;2.67;1.90;;;27.10;47.90;;;;;;6302779;22;20020;-84
2022/07/17 09:47:34;;;;;;;6.55;2.03;;;27.20;47.30;;;;;;6303167;22;20003;-84
2022/07/17 09:50:01;;;;;;;4.68;1.90;;;27.10;48.40;;;;;;6302964;22;20062;-85
2022/07/17 09:52:30;;;;;;;2.70;1.92;;;27.20;44.40;;;;;;6302945;22;20382;-85
2022/07/17 09:54:56;;;;;;;5.10;2.00;;;27.20;45.00;;;;;;6304034;22;20018;-84
2022/07/17 09:57:28;;;;;;;3.50;1.70;;;27.20;44.80;;;;;;6303691;22;19999;-85
2022/07/17 09:59:55;;;;;;;4.60;2.20;;;27.30;46.20;;;;;;6303939;22;20252;-85
2022/07/17 10:02:22;;;;;;;3.28;2.00;;;27.40;45.20;;;;;;6287540;22;20070;-86
2022/07/17 10:04:48;;;;;;;4.03;1.98;;;27.50;43.20;;;;;;6306351;22;19999;-84
2022/07/17 10:07:15;;;;;;;5.80;1.80;;;27.50;42.40;;;;;;6303122;22;20049;-88
2022/07/17 10:09:40;;;;;;;2.63;2.25;;;27.40;43.20;;;;;;6302658;22;20000;-87
2022/07/17 10:12:07;;;;;;;7.07;1.80;;;27.40;42.20;;;;;;6302374;22;20010;-84
2022/07/17 10:14:35;;;;;;;6.47;1.97;;;27.60;42.00;;;;;;6302875;22;20470;-92
2022/07/17 10:17:11;;;;;;;11.05;2.17;;;27.40;39.10;;;;;;6302937;22;20000;-86
2022/07/17 10:20:04;;;;;;;7.35;2.10;;;27.50;40.70;;;;;;6302749;22;20000;-88
2022/07/17 10:22:42;;;;;;;11.40;2.15;;;27.60;41.20;;;;;;6296155;22;20018;-87
2022/07/17 10:25:11;;;;;;;5.43;1.90;;;27.70;41.90;;;;;;6274226;22;20451;-82
2022/07/17 10:27:45;;;;;;;4.13;1.65;;;27.60;40.20;;;;;;6274582;22;20436;-83
2022/07/17 10:30:11;;;;;;;8.25;2.90;;;27.60;40.00;;;;;;6302051;22;20383;-86
2022/07/17 10:32:38;;;;;;;4.93;2.33;;;27.40;40.60;;;;;;6301957;22;19995;-85
2022/07/17 10:35:09;;;;;;;27.42;14.82;;;27.50;40.10;;;;;;6301494;22;20010;-90
2022/07/17 10:37:35;;;;;;;5.45;2.63;;;27.80;41.20;;;;;;6302296;22;20027;-86
2022/07/17 10:40:14;;;;;;;13.23;2.30;;;28.00;42.90;;;;;;6302251;22;20422;-85
2022/07/17 10:42:51;;;;;;;3.60;1.80;;;28.10;41.00;;;;;;6302633;22;20074;-86
2022/07/17 10:45:24;;;;;;;3.78;1.95;;;28.30;41.00;;;;;;6301273;22;20007;-88
2022/07/17 10:47:58;;;;;;;5.53;1.77;;;28.10;37.70;;;;;;6301314;22;19999;-84
2022/07/17 10:50:38;;;;;;;25.58;13.70;;;28.00;38.80;;;;;;6302064;22;20003;-82
2022/07/17 10:53:24;;;;;;;30.38;12.90;;;28.10;42.30;;;;;;6301522;22;19999;-86
2022/07/17 10:56:01;;;;;;;6.60;3.47;;;28.30;37.60;;;;;;6274036;22;20019;-84
2022/07/17 10:58:35;;;;;;;8.50;1.70;;;28.20;39.00;;;;;;6302386;22;20000;-83
2022/07/17 11:01:12;;;;;;;3.58;2.35;;;28.20;37.50;;;;;;6301749;22;20078;-90
2022/07/17 11:03:44;;;;;;;28.55;6.70;;;28.30;38.10;;;;;;6301399;22;20505;-89
2022/07/17 11:06:11;;;;;;;4.00;2.47;;;28.30;38.00;;;;;;6301975;22;20325;-89
2022/07/17 11:08:57;;;;;;;2.83;1.80;;;28.50;39.00;;;;;;6302296;22;19999;-88
2022/07/17 11:11:43;;;;;;;6.32;2.28;;;28.30;38.70;;;;;;6302014;22;20024;-91
2022/07/17 11:14:14;;;;;;;15.40;6.95;;;28.40;38.80;;;;;;6302171;22;20007;-90
2022/07/17 11:16:47;;;;;;;5.53;2.17;;;28.70;40.00;;;;;;6302096;22;19999;-83
2022/07/17 11:19:32;;;;;;;2.95;1.77;;;28.90;39.30;;;;;;6302186;22;20003;-85
2022/07/17 11:22:02;;;;;;;3.50;2.00;;;29.00;36.60;;;;;;6302877;22;20007;-90
2022/07/17 11:24:42;;;;;;;6.68;2.00;;;29.00;38.00;;;;;;6275697;22;20383;-92
2022/07/17 11:27:11;;;;;;;4.75;2.00;;;28.90;36.10;;;;;;6302158;22;20025;-93
2022/07/17 11:29:40;;;;;;;8.73;1.80;;;28.90;38.50;;;;;;6302741;22;20002;-84
2022/07/17 11:32:07;;;;;;;103.28;6.85;;;29.10;38.30;;;;;;6303250;22;20003;-84
2022/07/17 11:34:33;;;;;;;7.65;1.63;;;29.10;36.40;;;;;;6302720;22;20010;-92
2022/07/17 11:37:04;;;;;;;4.07;1.85;;;29.20;38.10;;;;;;6309149;22;20023;-86
2022/07/17 11:39:46;;;;;;;2.30;1.70;;;29.30;37.60;;;;;;6305243;22;20086;-94
2022/07/17 11:42:14;;;;;;;4.63;1.80;;;29.30;37.30;;;;;;6302721;22;19999;-91
2022/07/17 11:44:40;;;;;;;6.97;1.52;;;29.40;36.70;;;;;;6273921;22;20018;-85
2022/07/17 11:47:07;;;;;;;6.55;1.80;;;29.30;36.80;;;;;;6300910;22;20000;-90
2022/07/17 11:49:35;;;;;;;11.43;2.25;;;29.40;36.20;;;;;;6302040;22;20003;-92
2022/07/17 11:52:15;;;;;;;6.35;1.80;;;31.80;37.50;;;;;;6301776;22;20006;-85
2022/07/17 11:54:55;;;;;;;6.35;1.77;;;29.40;37.60;;;;;;6302120;22;20007;-92
2022/07/17 11:57:22;;;;;;;3.75;1.70;;;29.40;36.40;;;;;;6274666;22;20011;-90
2022/07/17 11:59:49;;;;;;;11.80;3.22;;;29.40;35.30;;;;;;6303394;22;20491;-89
2022/07/17 12:02:17;;;;;;;2.13;1.43;;;29.40;35.80;;;;;;6304996;22;20057;-85
2022/07/17 12:04:56;;;;;;;1.75;1.63;;;29.40;36.20;;;;;;6302138;22;20081;-88
2022/07/17 12:07:24;;;;;;;1.88;1.40;;;29.50;34.40;;;;;;6276726;22;20012;-85
2022/07/17 12:09:50;;;;;;;3.38;1.40;;;29.50;33.80;;;;;;6301897;22;20005;-89
2022/07/17 12:12:24;;;;;;;2.72;1.42;;;29.50;34.60;;;;;;6302195;22;20035;-89
2022/07/17 12:14:55;;;;;;;5.60;1.88;;;29.60;34.90;;;;;;6302073;22;20672;-89
2022/07/17 12:17:21;;;;;;;6.30;1.80;;;29.60;33.70;;;;;;6301974;22;20561;-89
2022/07/17 12:19:47;;;;;;;3.35;1.50;;;29.60;34.10;;;;;;6301760;22;20450;-88
2022/07/17 12:22:12;;;;;;;3.67;1.88;;;29.50;32.60;;;;;;6302992;22;19999;-90
2022/07/17 12:24:44;;;;;;;3.40;1.80;;;29.50;33.60;;;;;;6303327;22;20019;-89
2022/07/17 12:27:15;;;;;;;2.13;1.40;;;29.60;33.00;;;;;;6303431;22;20053;-89
2022/07/17 12:29:41;;;;;;;4.20;1.50;;;29.60;33.30;;;;;;6275664;22;20349;-84
2022/07/17 12:32:14;;;;;;;3.58;1.67;;;29.60;32.80;;;;;;6303567;22;20054;-87
2022/07/17 12:34:48;;;;;;;2.63;1.40;;;29.60;32.60;;;;;;6303924;22;20011;-87
2022/07/17 12:37:18;;;;;;;4.43;1.70;;;29.70;32.70;;;;;;6303530;22;20077;-88
2022/07/17 12:39:45;;;;;;;2.92;1.55;;;29.90;33.20;;;;;;6303576;22;19995;-89
2022/07/17 12:42:11;;;;;;;4.85;1.50;;;29.90;32.90;;;;;;6303108;22;20466;-85
2022/07/17 12:44:37;;;;;;;3.83;1.90;;;29.90;32.90;;;;;;6309331;22;19979;-84
2022/07/17 12:47:03;;;;;;;4.60;1.63;;;29.90;33.40;;;;;;6316651;22;20011;-85
2022/07/17 12:49:29;;;;;;;2.78;1.50;;;29.80;32.80;;;;;;6313574;22;19995;-85
2022/07/17 12:51:55;;;;;;;3.05;1.63;;;29.80;32.80;;;;;;6303937;22;20014;-87
2022/07/17 12:54:21;;;;;;;3.30;1.55;;;29.90;32.40;;;;;;6275553;22;20007;-86
2022/07/17 12:56:47;;;;;;;7.20;1.65;;;30.00;32.80;;;;;;6303426;22;20078;-88
2022/07/17 12:59:13;;;;;;;2.53;1.30;;;29.80;29.80;;;;;;6302981;22;19996;-89
2022/07/17 13:01:39;;;;;;;4.90;1.58;;;29.90;31.70;;;;;;6275510;22;20014;-85
2022/07/17 13:04:05;;;;;;;4.32;1.48;;;30.00;32.50;;;;;;6275558;22;20043;-85
2022/07/17 13:06:32;;;;;;;5.50;1.60;;;30.00;32.70;;;;;;6303681;22;20366;-85
2022/07/17 13:08:58;;;;;;;1.70;1.60;;;30.10;30.70;;;;;;6302739;22;20013;-87
2022/07/17 13:11:24;;;;;;;3.13;1.50;;;30.10;31.30;;;;;;6302095;22;20668;-86
2022/07/17 13:13:50;;;;;;;5.38;1.63;;;30.20;33.70;;;;;;6303211;22;20007;-87
2022/07/17 13:16:15;;;;;;;2.05;1.60;;;30.30;32.50;;;;;;6274969;22;20015;-84
2022/07/17 13:18:41;;;;;;;13.73;6.68;;;30.30;32.10;;;;;;6302665;22;20004;-84
2022/07/17 13:21:07;;;;;;;11.15;4.50;;;30.30;31.40;;;;;;6303360;22;20007;-85
2022/07/17 13:23:34;;;;;;;3.78;1.80;;;30.20;32.20;;;;;;6304068;22;20002;-84
2022/07/17 13:26:00;;;;;;;;;;;30.40;31.80;;;;;;6277251;22;20003;-87
2022/07/17 13:28:26;;;;;;;2.90;1.95;;;30.50;31.00;;;;;;6275873;22;19907;-84
2022/07/17 13:30:52;;;;;;;6.80;3.13;;;30.60;31.60;;;;;;6302918;22;20000;-85
2022/07/17 13:33:17;;;;;;;5.72;2.10;;;30.60;30.80;;;;;;6302994;22;20003;-85
2022/07/17 13:35:43;;;;;;;12.05;5.72;;;30.60;30.50;;;;;;6302873;22;20043;-84
2022/07/17 13:38:09;;;;;;;6.57;3.58;;;30.50;31.30;;;;;;6302836;22;20024;-88
2022/07/17 13:40:36;;;;;;;5.68;3.25;;;30.50;31.60;;;;;;6304019;22;20092;-93
2022/07/17 13:43:02;;;;;;;3.10;2.13;;;30.50;31.20;;;;;;6302881;22;19999;-85
2022/07/17 13:45:29;;;;;;;4.05;1.92;;;30.60;31.20;;;;;;6303124;22;20709;-83
2022/07/17 13:47:55;;;;;;;4.22;1.73;;;30.70;31.60;;;;;;6302442;22;20022;-92
2022/07/17 13:50:22;;;;;;;5.38;1.63;;;30.80;31.40;;;;;;6302556;22;19999;-87
2022/07/17 13:52:47;;;;;;;5.13;1.93;;;30.80;33.10;;;;;;6302492;22;20000;-88
2022/07/17 13:55:14;;;;;;;2.15;1.60;;;30.80;30.10;;;;;;6302158;22;20462;-87
2022/07/17 13:57:40;;;;;;;2.55;1.60;;;30.80;33.20;;;;;;6301990;22;20501;-88
2022/07/17 14:00:07;;;;;;;3.60;1.58;;;30.90;31.00;;;;;;6303053;22;20014;-84
2022/07/17 14:02:34;;;;;;;5.38;1.58;;;30.90;30.00;;;;;;6302896;22;20454;-86
2022/07/17 14:05:00;;;;;;;3.40;1.58;;;30.90;30.50;;;;;;6302002;22;20071;-89
2022/07/17 14:07:26;;;;;;;1.70;1.60;;;30.90;30.50;;;;;;6301666;22;20086;-89
2022/07/17 14:09:52;;;;;;;3.80;1.50;;;30.90;30.70;;;;;;6302124;22;20344;-88
2022/07/17 14:12:17;;;;;;;4.95;1.80;;;31.00;30.90;;;;;;6301861;22;20023;-85
2022/07/17 14:14:43;;;;;;;5.15;1.60;;;31.10;31.20;;;;;;6301889;22;20126;-89
2022/07/17 14:17:09;;;;;;;2.35;1.73;;;31.00;29.40;;;;;;6302326;22;19995;-86
2022/07/17 14:19:36;;;;;;;6.90;1.63;;;31.10;30.00;;;;;;6302530;22;20018;-90
2022/07/17 14:22:02;;;;;;;;;;;31.10;30.70;;;;;;6303117;22;20013;-87
2022/07/17 14:24:27;;;;;;;3.38;1.60;;;31.20;31.50;;;;;;6301630;22;19985;-90
2022/07/17 14:26:53;;;;;;;4.65;1.60;;;31.20;30.40;;;;;;6302193;22;20049;-86
2022/07/17 14:29:19;;;;;;;2.13;1.50;;;31.30;30.40;;;;;;6301366;22;19999;-91
2022/07/17 14:31:44;;;;;;;2.25;1.30;;;31.30;30.10;;;;;;6302379;22;20000;-86
2022/07/17 14:34:11;;;;;;;3.63;1.67;;;31.20;29.80;;;;;;6301871;22;20083;-84
2022/07/17 14:36:37;;;;;;;1.50;1.40;;;31.20;29.40;;;;;;6274724;22;20029;-84
2022/07/17 14:39:03;;;;;;;8.52;1.70;;;31.20;28.30;;;;;;6304065;22;20000;-91
2022/07/17 14:41:28;;;;;;;2.47;1.65;;;31.30;29.00;;;;;;6302126;22;20053;-84
2022/07/17 14:43:54;;;;;;;5.03;1.58;;;31.20;29.20;;;;;;6301695;22;20086;-85
2022/07/17 14:46:21;;;;;;;4.70;1.58;;;31.30;29.70;;;;;;6301608;22;20045;-85
2022/07/17 14:48:46;;;;;;;2.78;1.50;;;31.40;29.00;;;;;;6301603;22;20034;-92
2022/07/17 14:51:12;;;;;;;3.00;1.40;;;31.30;27.90;;;;;;6275115;22;19999;-91
2022/07/17 14:53:38;;;;;;;3.22;1.65;;;31.40;28.20;;;;;;6302203;22;20011;-86
2022/07/17 14:56:04;;;;;;;5.40;1.65;;;31.50;28.60;;;;;;6303068;22;20007;-90
2022/07/17 14:58:30;;;;;;;2.30;1.40;;;31.60;28.30;;;;;;6302048;22;20030;-87
2022/07/17 15:00:55;;;;;;;7.25;1.65;;;31.70;28.40;;;;;;6305210;22;20010;-91
2022/07/17 15:03:21;;;;;;;3.20;1.83;;;31.60;28.40;;;;;;6283733;22;20014;-93
2022/07/17 15:05:47;;;;;;;3.38;1.80;;;31.70;29.00;;;;;;6302740;22;20447;-94
2022/07/17 15:08:12;;;;;;;1.50;1.40;;;31.80;28.30;;;;;;6304967;22;20317;-91
2022/07/17 15:10:38;;;;;;;3.33;1.52;;;31.80;27.90;;;;;;6302630;22;20007;-90
2022/07/17 15:13:04;;;;;;;3.65;1.52;;;31.90;27.90;;;;;;6302849;22;20007;-90
2022/07/17 15:15:29;;;;;;;2.08;1.40;;;31.80;27.90;;;;;;6273939;22;20011;-90
2022/07/17 15:17:55;;;;;;;3.85;1.52;;;31.90;27.60;;;;;;6274455;22;20003;-88
2022/07/17 15:20:21;;;;;;;6.70;1.65;;;32.00;28.10;;;;;;6301400;22;20003;-88
2022/07/17 15:22:47;;;;;;;1.48;1.30;;;32.00;27.60;;;;;;6301914;22;20339;-88
2022/07/17 15:25:12;;;;;;;2.03;1.70;;;32.10;28.40;;;;;;6302253;22;20003;-85
2022/07/17 15:27:38;;;;;;;3.55;1.58;;;32.10;27.90;;;;;;6304096;22;20003;-87
2022/07/17 15:30:05;;;;;;;4.22;1.50;;;32.00;27.80;;;;;;6320935;22;19983;-85
2022/07/17 15:32:30;;;;;;;2.00;1.55;;;32.10;27.80;;;;;;6317679;22;20014;-89
2022/07/17 15:34:56;;;;;;;1.40;1.30;;;32.20;27.60;;;;;;6318002;22;19995;-85
2022/07/17 15:37:23;;;;;;;2.15;1.50;;;32.20;27.30;;;;;;6304451;22;20074;-85
2022/07/17 15:39:50;;;;;;;4.07;1.67;;;32.10;26.80;;;;;;6302965;22;19999;-85
2022/07/17 15:42:16;;;;;;;1.50;1.40;;;32.00;27.00;;;;;;6302282;22;20060;-86
2022/07/17 15:44:41;;;;;;;2.10;1.38;;;32.10;27.50;;;;;;6301236;22;20633;-85
2022/07/17 15:47:07;;;;;;;2.63;1.48;;;32.20;26.90;;;;;;6302519;22;19999;-85
2022/07/17 15:49:33;;;;;;;5.55;1.60;;;32.10;26.60;;;;;;6301198;22;20313;-91
2022/07/17 15:51:59;;;;;;;1.90;1.65;;;31.90;25.70;;;;;;6301254;22;20154;-90
2022/07/17 15:54:24;;;;;;;2.08;1.48;;;32.00;26.70;;;;;;6301246;22;20007;-84
2022/07/17 15:56:50;;;;;;;3.25;1.90;;;32.10;26.80;;;;;;6274980;22;20000;-84
2022/07/17 15:59:17;;;;;;;1.95;1.27;;;;;;;;;;6303495;22;20078;-90
2022/07/17 16:01:43;;;;;;;6.72;1.52;;;32.20;26.60;;;;;;6303293;22;20074;-92
2022/07/17 16:04:09;;;;;;;2.15;1.50;;;32.30;27.50;;;;;;6304629;22;20374;-91
2022/07/17 16:06:35;;;;;;;1.40;1.30;;;32.40;27.40;;;;;;6277718;22;20011;-87
2022/07/17 16:09:01;;;;;;;4.38;1.70;;;32.40;26.20;;;;;;6303643;22;20070;-90
2022/07/17 16:11:27;;;;;;;5.55;1.50;;;32.30;25.60;;;;;;6276169;22;20003;-85
2022/07/17 16:13:53;;;;;;;3.40;1.52;;;32.30;26.80;;;;;;6302931;22;20005;-93
2022/07/17 16:16:18;;;;;;;3.75;1.80;;;32.40;26.40;;;;;;6302859;22;20056;-84
2022/07/17 16:18:44;;;;;;;5.68;1.58;;;32.40;26.70;;;;;;6302735;22;20038;-85
2022/07/17 16:21:11;;;;;;;3.35;1.40;;;32.50;26.60;;;;;;6303745;22;20014;-93